Flight Track Log - Related Links

Times and Time Zones

All times are in EDT time to prevent confusion due to time zone crossing. See the N110LD flight status page for this flight to view local times or setup timezone preferences in your user account.

Time Position Orientation Groundspeed Altitude Reporting Facility
EDT Latitude Longitude Course Direction KTS MPH feet Rate Location/Type
Tue 10:43:28 AM 33.5336 -86.8100 236° Southwest 174 200 2,100  Level Atlanta Center
Tue 10:44:32 AM 33.5450 -86.8603 285° West 188 216 4,100 2,032 Climbing Atlanta Center
Tue 10:45:32 AM 33.6008 -86.8794 344° North 168 193 6,300 1,950 Climbing Atlanta Center
Tue 10:46:32 AM 33.6611 -86.8864 355° North 192 221 8,000 1,650 Climbing Atlanta Center
Tue 10:47:32 AM 33.7236 -86.8986 351° North 206 237 9,600 1,654 Climbing Atlanta Center
Tue 10:49:08 AM 33.8125 -86.9347 341° North 227 261 12,300 1,577 Climbing Memphis Center
Tue 10:50:08 AM 33.8692 -86.9525 345° North 216 249 13,700 1,350 Climbing Memphis Center
Tue 10:51:08 AM 33.9281 -86.9675 348° North 211 243 15,000 1,250 Climbing Memphis Center
Tue 10:52:08 AM 33.9892 -86.9853 346° North 211 243 16,200 1,200 Climbing Memphis Center
Tue 10:53:08 AM 34.0500 -87.0003 348° North 217 250 17,400 1,200 Climbing Memphis Center
Tue 10:54:08 AM 34.1133 -87.0281 340° North 239 275 18,600 1,150 Climbing Memphis Center
Tue 10:55:08 AM 34.1761 -87.0356 354° North 227 261 19,700 1,150 Climbing Memphis Center
Tue 10:56:08 AM 34.2392 -87.0508 349° North 227 261 20,900 1,150 Climbing Memphis Center
Tue 10:57:08 AM 34.3039 -87.0483 North 232 267 22,000 1,100 Climbing Memphis Center
Tue 10:58:08 AM 34.3772 -87.0656 349° North 237 273 23,100 1,050 Climbing Memphis Center
Tue 10:59:08 AM 34.4442 -87.0681 358° North 237 273 24,100 1,050 Climbing Memphis Center
Tue 11:00:08 AM 34.5133 -87.0753 355° North 237 273 25,200 1,050 Climbing Memphis Center
Tue 11:01:08 AM 34.5825 -87.0906 350° North 237 273 26,200 1,050 Climbing Memphis Center
Tue 11:02:08 AM 34.6514 -87.0978 355° North 243 280 27,300 1,000 Climbing Memphis Center
Tue 11:03:08 AM 34.7164 -87.1106 351° North 238 274 28,200 850 Climbing Memphis Center
Tue 11:04:08 AM 34.7814 -87.1181 355° North 238 274 29,000 750 Climbing Memphis Center
Tue 11:05:08 AM 34.8483 -87.1256 355° North 238 274 29,700 750 Climbing Memphis Center
Tue 11:06:08 AM 34.9133 -87.1333 354° North 238 274 30,500 650 Climbing Memphis Center
Tue 11:07:08 AM 34.9719 -87.1411 354° North 238 274 31,000 550 Climbing Memphis Center
Tue 11:08:08 AM 35.0389 -87.1539 351° North 238 274 31,600 500 Climbing Memphis Center
Tue 11:09:08 AM 35.1019 -87.1692 349° North 238 274 32,000 200 Climbing Memphis Center
Tue 11:10:08 AM 35.1814 -87.1814 353° North 250 288 32,000  Level Memphis Center
Tue 11:11:08 AM 35.2550 -87.1964 351° North 255 293 32,000  Level Memphis Center
Tue 11:12:08 AM 35.3303 -87.2114 351° North 261 300 32,000  Level Memphis Center
Tue 11:13:08 AM 35.4039 -87.2289 349° North 261 300 32,000  Level Memphis Center
Tue 11:14:08 AM 35.4833 -87.2439 351° North 272 313 32,000  Level Memphis Center
Tue 11:15:08 AM 35.5611 -87.2614 350° North 278 320 32,000  Level Memphis Center
Tue 11:16:08 AM 35.6386 -87.2739 353° North 278 320 32,000  Level Memphis Center
Tue 11:17:20 AM 35.7161 -87.2889 351° North 278 320 32,000  Level Memphis Center
Tue 11:18:20 AM 35.8125 -87.3108 350° North 278 320 32,000  Level Memphis Center
Tue 11:19:20 AM 35.8881 -87.3286 349° North 278 320 32,000  Level Memphis Center
Tue 11:20:20 AM 35.9678 -87.3461 350° North 278 320 32,000  Level Memphis Center
Tue 11:21:20 AM 36.0472 -87.3586 353° North 283 326 32,000  Level Memphis Center
Tue 11:22:20 AM 36.1247 -87.3764 350° North 283 326 32,000  Level Memphis Center
Tue 11:23:20 AM 36.1939 -87.3892 352° North 278 320 32,000  Level Memphis Center
Tue 11:24:20 AM 36.2714 -87.4069 350° North 278 320 32,000  Level Memphis Center
Tue 11:25:20 AM 36.3489 -87.4222 351° North 278 320 32,000  Level Memphis Center
Tue 11:26:20 AM 36.4264 -87.4375 351° North 278 320 32,000  Level Memphis Center
Tue 11:27:20 AM 36.5039 -87.4528 351° North 278 320 32,000  Level Memphis Center
Tue 11:28:20 AM 36.5878 -87.4731 349° North 278 320 32,000  Level Memphis Center
Tue 11:29:20 AM 36.6653 -87.4883 351° North 284 327 32,000  Level Memphis Center
Tue 11:30:20 AM 36.7428 -87.5036 351° North 279 321 32,000  Level Memphis Center
Tue 11:31:20 AM 36.8203 -87.5189 351° North 279 321 32,000  Level Memphis Center
Tue 11:32:20 AM 36.8997 -87.5394 348° North 279 321 32,000  Level Memphis Center
Tue 11:34:06 AM 37.0303 -87.5639 351° North 287 330 32,000  Level Indianapolis Center
Tue 11:35:08 AM 37.1083 -87.5800 351° North 284 327 32,000  Level Indianapolis Center
Tue 11:36:10 AM 37.1861 -87.5981 350° North 281 323 32,000  Level Indianapolis Center
Tue 11:37:12 AM 37.2647 -87.6153 350° North 282 325 32,000  Level Indianapolis Center
Tue 11:38:13 AM 37.3561 -87.6342 351° North 282 325 32,000  Level Indianapolis Center
Tue 11:39:15 AM 37.4342 -87.6503 351° North 282 325 32,000  Level Indianapolis Center
Tue 11:40:17 AM 37.5131 -87.6667 351° North 284 327 32,000  Level Indianapolis Center
Tue 11:41:19 AM 37.5906 -87.6847 350° North 282 325 32,000  Level Indianapolis Center
Tue 11:42:21 AM 37.6681 -87.7031 349° North 280 322 32,000  Level Indianapolis Center
Tue 11:43:23 AM 37.7456 -87.7197 350° North 281 323 32,000  Level Indianapolis Center
Tue 11:44:25 AM 37.8233 -87.7364 350° North 280 322 32,000  Level Indianapolis Center
Tue 11:45:27 AM 37.9019 -87.7550 349° North 283 326 32,000  Level Indianapolis Center
Tue 11:46:29 AM 37.9792 -87.7694 352° North 279 321 32,000  Level Indianapolis Center
Tue 11:47:31 AM 38.0578 -87.7781 355° North 281 323 32,000  Level Indianapolis Center
Tue 11:48:33 AM 38.1508 -87.7914 354° North 279 321 32,000  Level Indianapolis Center
Tue 11:49:34 AM 38.2278 -87.8019 354° North 277 319 32,000  Level Indianapolis Center
Tue 11:50:36 AM 38.3053 -87.8158 352° North 278 320 32,000 -97 Level Indianapolis Center
Tue 11:51:38 AM 38.3842 -87.8269 354° North 281 323 31,800 -435 Descending Indianapolis Center
Tue 11:52:40 AM 38.4669 -87.8258 North 292 336 31,100 -532 Descending Indianapolis Center
Tue 11:53:42 AM 38.5500 -87.7900 19° North 309 356 30,700 -387 Descending Indianapolis Center
Tue 11:54:44 AM 38.6331 -87.7614 15° North 308 354 30,300 -532 Descending Indianapolis Center
Tue 11:55:46 AM 38.7178 -87.7386 12° North 308 354 29,600 -629 Descending Indianapolis Center
Tue 11:56:48 AM 38.8219 -87.7111 12° North 315 362 29,000 -290 Descending Indianapolis Center
Tue 11:57:50 AM 38.9053 -87.6869 13° North 309 356 29,000  Level Indianapolis Center
Tue 11:58:52 AM 38.9886 -87.6633 12° North 305 351 29,000  Level Indianapolis Center
Tue 11:59:54 AM 39.0672 -87.6306 18° North 298 343 29,000  Level Indianapolis Center
Tue 12:00:55 PM 39.1467 -87.5986 17° North 297 342 29,000  Level Indianapolis Center
Tue 12:01:57 PM 39.2261 -87.5706 15° North 295 339 29,000  Level Indianapolis Center
Tue 12:02:59 PM 39.3064 -87.5383 17° North 298 343 29,000  Level Indianapolis Center
Tue 12:04:01 PM 39.3858 -87.5078 17° North 298 343 29,000  Level Indianapolis Center
Tue 12:05:03 PM 39.4819 -87.4725 16° North 296 341 29,000 48 Level Indianapolis Center
Tue 12:06:05 PM 39.5617 -87.4739 359° North 300 345 29,100 -48 Climbing Indianapolis Center
Tue 12:07:07 PM 39.6369 -87.5106 339° North 292 336 28,900 -484 Descending Indianapolis Center
Tue 12:08:09 PM 39.7178 -87.5464 341° North 301 346 28,100 -581 Descending Indianapolis Center
Tue 12:09:11 PM 39.8019 -87.5806 343° North 311 358 27,700 -581 Descending Indianapolis Center
Tue 12:10:13 PM 39.8847 -87.6161 342° North 312 359 26,900 -871 Descending Indianapolis Center
Tue 12:11:15 PM 39.9725 -87.6514 343° North 322 371 25,900 -1,073 Descending Indianapolis Center
Tue 12:12:16 PM 40.0614 -87.6833 345° North 328 377 24,700 -1,171 Descending Indianapolis Center
Tue 12:13:18 PM 40.1678 -87.7258 343° North 332 382 23,500 -1,016 Descending Indianapolis Center
Tue 12:14:20 PM 40.2556 -87.7589 344° North 329 379 22,600 -871 Descending Indianapolis Center
Tue 12:15:22 PM 40.3406 -87.7922 343° North 324 373 21,700 -871 Descending Indianapolis Center
Tue 12:16:24 PM 40.4278 -87.8231 345° North 322 371 20,800 -823 Descending Indianapolis Center
Tue 12:17:26 PM 40.5142 -87.8508 346° North 321 369 20,000 -732 Descending Indianapolis Center
Tue 12:18:27 PM 40.5972 -87.8828 344° North 316 364 19,300 -976 Descending Indianapolis Center
Tue 12:19:29 PM 40.6800 -87.9158 343° North 312 359 18,000 -1,355 Descending Indianapolis Center
Tue 12:20:31 PM 40.7625 -87.9456 345° North 309 356 16,500 -1,659 Descending Indianapolis Center
Tue 12:21:32 PM 40.8403 -87.9719 346° North 299 344 14,600 -2,211 Descending Indianapolis Center
Tue 12:21:47 PM 40.8744 -87.9903 338° Northwest 286 329 13,700 -2,416 Descending Chicago Center
Tue 12:22:49 PM 40.9469 -88.0200 343° North 277 319 11,500 -2,032 Descending Chicago Center
Tue 12:23:51 PM 41.0228 -88.0439 347° North 280 322 9,500 -1,776 Descending Chicago Center
Tue 12:24:54 PM 41.0964 -88.0717 344° North 278 320 7,800 -1,728 Descending Chicago Center
Tue 12:25:56 PM 41.1686 -88.1019 342° North 273 314 5,900 -1,790 Descending Chicago Center
Tue 12:26:58 PM 41.2406 -88.1286 344° North 270 311 4,100 -919 Descending Chicago Center
Tue 12:28:00 PM 41.3214 -88.1592 344° North 256 295 4,000 -48 Descending Chicago Center
Tue 12:29:02 PM 41.3819 -88.1819 344° North 234 269 4,000  Level Chicago Center
Tue 12:30:04 PM 41.4414 -88.2036 345° North 223 257 4,000  Level Chicago Center
Tue 12:31:06 PM 41.4944 -88.2392 333° Northwest 212 244 4,000 -194 Level Chicago Center
Tue 12:32:08 PM 41.5497 -88.2633 342° North 216 249 3,600 -435 Descending Chicago Center
Tue 12:33:10 PM 41.6139 -88.2653 359° North 227 261 3,100 -484 Descending Chicago Center
Tue 12:34:12 PM 41.6703 -88.2675 358° North 218 251 2,600 -290 Descending Chicago Center
Tue 12:35:14 PM 41.7233 -88.2689 359° North 180 207 2,500 -48 Descending Chicago Center
Tue 12:36:16 PM 41.7492 -88.2986 319° Northwest 169 194 2,500 48 Level Chicago Center
Tue 12:37:19 PM 41.7683 -88.3519 296° West 162 186 2,600 -384 Climbing Chicago Center
Tue 12:38:21 PM 41.7694 -88.4108 271° West 162 186 1,700 -823 Descending Chicago Center
Tue 12:39:23 PM 41.7689 -88.4556 269° West 144 166 900 -774 Descending Chicago Center

Login

Don't have an account? Register now (free) for customized features, flight alerts, and more!